Time;durP1;ratioP1;P1;durP2;ratioP2;P2;SDS_P1;SDS_P2;PMS_P1;PMS_P2;Temp;Humidity;BMP_temperature;BMP_pressure;BME280_temperature;BME280_humidity;BME280_pressure;Samples;Min_cycle;Max_cycle;Signal;HPM_P1;HPM_P2
2023/09/23 00:01:53;;;;;;;1.08;0.70;;;12.50;78.90;;;;;;5013706;28;20030;-79
2023/09/23 00:04:22;;;;;;;1.60;0.80;;;12.50;78.90;;;;;;5014090;28;20112;-77
2023/09/23 00:06:49;;;;;;;2.10;1.00;;;12.60;78.80;;;;;;5013213;28;20463;-78
2023/09/23 00:09:17;;;;;;;1.35;0.60;;;12.60;77.90;;;;;;5013741;28;20132;-78
2023/09/23 00:11:43;;;;;;;2.45;0.80;;;12.60;78.10;;;;;;5013372;28;20044;-77
2023/09/23 00:14:10;;;;;;;1.90;0.75;;;12.60;79.50;;;;;;5013500;28;20022;-76
2023/09/23 00:16:36;;;;;;;1.13;0.65;;;12.70;78.80;;;;;;5013478;28;20033;-77
2023/09/23 00:19:02;;;;;;;1.08;0.80;;;12.70;78.60;;;;;;5013544;28;20030;-77
2023/09/23 00:21:27;;;;;;;2.83;1.00;;;12.80;78.40;;;;;;5013351;28;20026;-77
2023/09/23 00:23:53;;;;;;;1.45;0.60;;;12.90;78.20;;;;;;5013455;28;20462;-77
2023/09/23 00:26:20;;;;;;;1.05;0.63;;;12.80;77.50;;;;;;5013597;28;20169;-77
2023/09/23 00:28:46;;;;;;;1.30;0.70;;;12.90;77.60;;;;;;5013273;28;20030;-78
2023/09/23 00:31:14;;;;;;;1.08;0.70;;;12.80;77.90;;;;;;5013500;28;20045;-77
2023/09/23 00:33:41;;;;;;;1.65;0.70;;;12.70;77.80;;;;;;5013389;28;20038;-77
2023/09/23 00:36:09;;;;;;;1.65;0.73;;;12.70;77.80;;;;;;5013269;28;20026;-77
2023/09/23 00:38:35;;;;;;;3.70;0.98;;;12.60;77.70;;;;;;5013314;28;20030;-77
2023/09/23 00:41:03;;;;;;;1.98;1.08;;;12.60;78.00;;;;;;4997019;28;20044;-77
2023/09/23 00:43:32;;;;;;;1.48;0.90;;;12.50;78.10;;;;;;5013259;28;20109;-77
2023/09/23 00:45:58;;;;;;;1.40;0.80;;;12.50;78.20;;;;;;5013142;28;20068;-76
2023/09/23 00:48:25;;;;;;;1.13;0.80;;;12.50;78.40;;;;;;5013952;28;20022;-77
2023/09/23 00:50:53;;;;;;;4.50;0.80;;;12.60;78.60;;;;;;5013253;28;20116;-76
2023/09/23 00:53:20;;;;;;;0.70;0.50;;;12.50;77.30;;;;;;5013094;28;20057;-77
2023/09/23 00:55:52;;;;;;;1.25;0.70;;;12.50;77.30;;;;;;5012551;28;20130;-76
2023/09/23 00:58:21;;;;;;;0.73;0.65;;;12.40;77.30;;;;;;5013932;28;20026;-77
2023/09/23 01:00:48;;;;;;;4.10;0.80;;;12.40;77.60;;;;;;4996381;28;20041;-76
2023/09/23 01:03:15;;;;;;;1.38;0.50;;;12.40;77.50;;;;;;5011575;28;20022;-76
2023/09/23 01:05:43;;;;;;;3.38;0.85;;;12.30;77.70;;;;;;5012617;28;20068;-78
2023/09/23 01:08:18;;;;;;;1.20;0.60;;;12.30;77.70;;;;;;5012659;28;20022;-79
2023/09/23 01:10:46;;;;;;;2.35;0.80;;;12.30;77.80;;;;;;4997512;28;20042;-79
2023/09/23 01:13:12;;;;;;;2.80;1.35;;;12.30;78.40;;;;;;5012498;28;20049;-78
2023/09/23 01:15:40;;;;;;;3.05;1.27;;;12.30;78.80;;;;;;5012602;28;20108;-79
2023/09/23 01:18:08;;;;;;;1.45;1.02;;;12.30;79.20;;;;;;5012262;28;20056;-79
2023/09/23 01:20:38;;;;;;;2.25;0.90;;;12.20;79.60;;;;;;5012539;28;20050;-79
2023/09/23 01:23:05;;;;;;;3.83;1.00;;;12.20;79.90;;;;;;5012214;28;20120;-79
2023/09/23 01:25:30;;;;;;;3.53;0.90;;;12.20;80.00;;;;;;5012420;28;20462;-79
2023/09/23 01:27:56;;;;;;;1.15;0.63;;;12.10;79.90;;;;;;5012487;28;20037;-80
2023/09/23 01:30:22;;;;;;;1.70;0.70;;;12.00;79.40;;;;;;4995782;28;20276;-77
2023/09/23 01:32:51;;;;;;;2.13;0.70;;;12.00;79.70;;;;;;5013210;28;20474;-78
2023/09/23 01:35:18;;;;;;;1.63;0.65;;;12.00;80.10;;;;;;5012356;28;20029;-78
2023/09/23 01:37:44;;;;;;;2.38;0.82;;;11.90;79.10;;;;;;5012196;28;20406;-78
2023/09/23 01:40:17;;;;;;;1.63;0.63;;;11.80;78.80;;;;;;4995784;28;20030;-78
2023/09/23 01:42:46;;;;;;;1.30;1.10;;;11.80;78.60;;;;;;5012124;28;20037;-78
2023/09/23 01:45:13;;;;;;;1.92;0.93;;;11.80;77.90;;;;;;5012075;28;20030;-79
2023/09/23 01:47:40;;;;;;;1.20;0.63;;;11.70;77.80;;;;;;4996087;28;20029;-78
2023/09/23 01:50:07;;;;;;;3.55;0.73;;;11.70;78.30;;;;;;5012075;28;20512;-77
2023/09/23 01:52:36;;;;;;;1.38;0.80;;;11.70;79.70;;;;;;5011883;28;20466;-78
2023/09/23 01:55:03;;;;;;;1.30;0.75;;;11.70;80.20;;;;;;5012217;28;20029;-78
2023/09/23 01:57:30;;;;;;;1.58;0.63;;;11.70;80.40;;;;;;5012083;28;20026;-78
2023/09/23 01:59:55;;;;;;;1.60;1.00;;;11.70;80.50;;;;;;5011564;28;20025;-78
2023/09/23 02:02:21;;;;;;;2.15;0.80;;;11.60;80.90;;;;;;4995433;28;20034;-78
2023/09/23 02:04:47;;;;;;;3.83;1.10;;;11.60;81.10;;;;;;5012020;28;20108;-78
2023/09/23 02:07:16;;;;;;;3.28;2.55;;;11.50;81.50;;;;;;5013009;28;20084;-77
2023/09/23 02:09:41;;;;;;;11.43;5.00;;;11.50;81.70;;;;;;5012100;28;20228;-79
2023/09/23 02:12:07;;;;;;;6.20;5.30;;;11.40;81.80;;;;;;5011779;28;20085;-79
2023/09/23 02:14:33;;;;;;;9.93;5.38;;;11.40;81.60;;;;;;5014719;28;20049;-79
2023/09/23 02:16:58;;;;;;;7.13;4.88;;;11.40;81.60;;;;;;5015402;28;20029;-79
2023/09/23 02:19:25;;;;;;;5.10;3.70;;;11.40;81.40;;;;;;5015458;28;20083;-79
2023/09/23 02:21:51;;;;;;;5.53;3.75;;;11.30;81.30;;;;;;5015554;28;20028;-76
2023/09/23 02:24:18;;;;;;;3.75;3.25;;;11.30;81.50;;;;;;5015523;28;20172;-77
2023/09/23 02:26:47;;;;;;;4.25;3.35;;;11.20;81.40;;;;;;5015649;28;20022;-78
2023/09/23 02:29:14;;;;;;;10.45;7.75;;;11.20;81.50;;;;;;5015470;28;20176;-79
2023/09/23 02:31:44;;;;;;;5.20;4.70;;;11.10;81.20;;;;;;5015650;28;20033;-78
2023/09/23 02:34:10;;;;;;;5.88;3.78;;;11.00;81.10;;;;;;5015488;28;20022;-78
2023/09/23 02:36:37;;;;;;;2.72;2.53;;;11.10;81.40;;;;;;5015592;28;20385;-78
2023/09/23 02:39:04;;;;;;;3.75;2.42;;;11.00;81.40;;;;;;5015512;28;20030;-78
2023/09/23 02:41:30;;;;;;;3.15;2.20;;;11.10;81.60;;;;;;5015264;28;20018;-78
2023/09/23 02:43:55;;;;;;;1.95;1.73;;;11.10;81.70;;;;;;5015121;28;20026;-78
2023/09/23 02:46:21;;;;;;;1.70;1.60;;;11.10;81.60;;;;;;5015483;28;20026;-79
2023/09/23 02:48:47;;;;;;;2.03;1.50;;;11.00;81.20;;;;;;5015049;28;20030;-78
2023/09/23 02:51:13;;;;;;;2.42;1.10;;;11.00;81.20;;;;;;5016602;28;20084;-77
2023/09/23 02:53:39;;;;;;;2.63;1.20;;;11.00;81.20;;;;;;5015333;28;20022;-78
2023/09/23 02:56:08;;;;;;;2.08;0.60;;;11.00;81.40;;;;;;5016308;28;20041;-78
2023/09/23 02:58:34;;;;;;;2.60;0.80;;;11.00;81.30;;;;;;5015110;28;20026;-77
2023/09/23 03:01:04;;;;;;;2.85;0.70;;;10.90;81.40;;;;;;5015153;28;20030;-79
2023/09/23 03:03:33;;;;;;;1.98;0.70;;;10.90;81.70;;;;;;5015226;28;20049;-78
2023/09/23 03:06:02;;;;;;;3.17;0.80;;;10.80;81.60;;;;;;5015227;28;20026;-79
2023/09/23 03:08:29;;;;;;;0.73;0.57;;;10.80;82.00;;;;;;5015367;28;20049;-80
2023/09/23 03:11:02;;;;;;;1.40;0.80;;;10.70;82.10;;;;;;5015086;28;20120;-78
2023/09/23 03:13:29;;;;;;;2.53;0.57;;;10.80;82.10;;;;;;5014757;28;20050;-78
2023/09/23 03:16:04;;;;;;;1.45;0.73;;;10.80;82.10;;;;;;5014958;28;20025;-78
2023/09/23 03:18:33;;;;;;;0.75;0.63;;;10.70;82.30;;;;;;5015036;28;20029;-79
2023/09/23 03:21:08;;;;;;;1.25;0.85;;;10.80;82.40;;;;;;5014903;28;20030;-78
2023/09/23 03:23:39;;;;;;;3.38;0.60;;;10.80;82.00;;;;;;5015245;28;20109;-78
2023/09/23 03:26:08;;;;;;;0.82;0.50;;;10.80;82.00;;;;;;5013907;28;20106;-78
2023/09/23 03:28:35;;;;;;;0.95;0.60;;;10.70;81.70;;;;;;5015621;28;20038;-78
2023/09/23 03:31:03;;;;;;;1.20;0.47;;;10.70;81.70;;;;;;5014943;28;20029;-79
2023/09/23 03:33:29;;;;;;;1.95;0.68;;;10.70;81.60;;;;;;5014904;28;20046;-79
2023/09/23 03:35:56;;;;;;;1.35;0.50;;;10.60;81.70;;;;;;5013926;28;20037;-79
2023/09/23 03:38:21;;;;;;;3.92;0.82;;;10.70;81.90;;;;;;5015493;28;20101;-79
2023/09/23 03:40:59;;;;;;;3.10;0.65;;;10.70;81.90;;;;;;5014619;28;20122;-79
2023/09/23 03:43:25;;;;;;;3.50;0.98;;;10.60;82.00;;;;;;5014626;28;20494;-78
2023/09/23 03:45:53;;;;;;;0.77;0.50;;;10.70;82.20;;;;;;5014200;28;20067;-79
2023/09/23 03:48:19;;;;;;;2.63;0.63;;;10.70;82.00;;;;;;5014334;28;20037;-78
2023/09/23 03:50:49;;;;;;;1.90;0.85;;;10.70;81.90;;;;;;5013881;28;20034;-78
2023/09/23 03:53:15;;;;;;;2.38;0.80;;;10.70;82.00;;;;;;5013643;28;20026;-79
2023/09/23 03:55:41;;;;;;;1.27;0.70;;;10.70;82.10;;;;;;5014271;28;20490;-79
2023/09/23 03:58:07;;;;;;;2.65;0.77;;;10.60;82.20;;;;;;5013763;28;20038;-80
2023/09/23 04:00:34;;;;;;;2.50;0.60;;;10.70;82.20;;;;;;5014146;28;20072;-80
2023/09/23 04:03:00;;;;;;;2.38;1.00;;;10.70;82.50;;;;;;5014275;28;20072;-79
2023/09/23 04:05:26;;;;;;;2.20;0.90;;;10.60;82.40;;;;;;4997981;28;20477;-79
2023/09/23 04:07:53;;;;;;;2.47;1.20;;;10.50;82.50;;;;;;5013701;28;20137;-78
2023/09/23 04:10:23;;;;;;;1.40;0.68;;;10.50;82.80;;;;;;5013602;28;20068;-79
2023/09/23 04:12:49;;;;;;;2.42;1.00;;;10.40;83.00;;;;;;5013623;28;20049;-79
2023/09/23 04:15:19;;;;;;;2.92;1.08;;;10.40;82.70;;;;;;5013701;28;20022;-79
2023/09/23 04:17:45;;;;;;;1.55;1.05;;;10.30;83.00;;;;;;5013507;28;20031;-79
2023/09/23 04:20:11;;;;;;;6.70;1.00;;;10.40;83.10;;;;;;5013247;28;20022;-79
2023/09/23 04:22:38;;;;;;;1.42;0.80;;;10.40;82.90;;;;;;5014639;28;20597;-79
2023/09/23 04:25:10;;;;;;;1.23;0.98;;;10.50;83.10;;;;;;5014786;28;20088;-79
2023/09/23 04:27:37;;;;;;;1.77;0.90;;;10.50;82.90;;;;;;5013678;28;20029;-80
2023/09/23 04:30:11;;;;;;;2.22;0.80;;;10.50;83.60;;;;;;5013414;28;20482;-79
2023/09/23 04:32:40;;;;;;;1.85;1.05;;;10.50;82.80;;;;;;5013896;28;20479;-79
2023/09/23 04:35:11;;;;;;;3.10;1.10;;;10.50;82.50;;;;;;5013590;28;20413;-78
2023/09/23 04:37:37;;;;;;;3.78;1.23;;;10.40;82.70;;;;;;5013561;28;20402;-78
2023/09/23 04:40:10;;;;;;;2.90;1.40;;;10.40;82.70;;;;;;5013483;28;20046;-78
2023/09/23 04:42:39;;;;;;;3.90;1.27;;;10.40;82.90;;;;;;4998230;28;20050;-77
2023/09/23 04:45:05;;;;;;;9.63;1.42;;;10.40;83.60;;;;;;5013642;28;20284;-77
2023/09/23 04:47:32;;;;;;;5.35;1.13;;;10.30;83.50;;;;;;5015298;28;20025;-78
2023/09/23 04:49:58;;;;;;;4.50;0.90;;;10.20;83.80;;;;;;5021218;28;20065;-76
2023/09/23 04:52:27;;;;;;;1.42;0.80;;;10.20;83.80;;;;;;5024089;28;20036;-77
2023/09/23 04:54:56;;;;;;;2.45;1.00;;;10.20;83.80;;;;;;5043417;28;20029;-78
2023/09/23 04:57:22;;;;;;;3.65;1.13;;;10.20;83.90;;;;;;5038303;28;20033;-76
2023/09/23 04:59:47;;;;;;;2.05;0.77;;;10.10;83.90;;;;;;5042274;28;20021;-76
2023/09/23 05:02:16;;;;;;;4.80;0.80;;;10.10;84.30;;;;;;5043376;28;20032;-77
2023/09/23 05:04:45;;;;;;;3.92;0.63;;;10.10;83.80;;;;;;5040803;28;20035;-76
2023/09/23 05:07:12;;;;;;;4.25;0.70;;;10.00;84.00;;;;;;5040185;28;20428;-76
2023/09/23 05:09:41;;;;;;;3.10;0.65;;;10.00;84.10;;;;;;5043093;28;20062;-77
2023/09/23 05:12:10;;;;;;;3.75;0.70;;;10.10;84.20;;;;;;5041799;28;20418;-77
2023/09/23 05:14:37;;;;;;;2.88;0.63;;;10.10;84.00;;;;;;5037308;28;20063;-77
2023/09/23 05:17:05;;;;;;;2.40;0.88;;;10.10;84.10;;;;;;5015762;28;20436;-77
2023/09/23 05:19:34;;;;;;;2.08;0.90;;;10.10;84.00;;;;;;5032198;28;20025;-76
2023/09/23 05:22:00;;;;;;;0.65;0.60;;;10.10;84.00;;;;;;5032307;28;20025;-78
2023/09/23 05:24:27;;;;;;;9.73;0.80;;;10.10;84.00;;;;;;5032029;28;20040;-78
2023/09/23 05:26:56;;;;;;;3.60;0.73;;;10.10;84.20;;;;;;5031957;28;20470;-78
2023/09/23 05:29:22;;;;;;;4.05;1.15;;;10.20;83.90;;;;;;5032140;28;20034;-77
2023/09/23 05:31:49;;;;;;;1.50;1.00;;;10.20;84.00;;;;;;5032434;28;20021;-77
2023/09/23 05:34:16;;;;;;;1.52;0.93;;;10.20;84.10;;;;;;5032079;28;20026;-77
2023/09/23 05:36:42;;;;;;;3.38;0.80;;;10.40;83.80;;;;;;5033219;28;20474;-78
2023/09/23 05:39:10;;;;;;;3.03;1.08;;;10.30;83.60;;;;;;5033659;28;20029;-77
2023/09/23 05:41:36;;;;;;;4.15;0.70;;;10.30;83.70;;;;;;5033468;28;20014;-79
2023/09/23 05:44:03;;;;;;;1.52;0.80;;;10.30;83.70;;;;;;5033322;28;20033;-78
2023/09/23 05:46:28;;;;;;;2.00;0.80;;;10.40;83.50;;;;;;5031965;28;20021;-79
2023/09/23 05:48:54;;;;;;;2.40;0.70;;;10.40;83.20;;;;;;5031563;28;20025;-78
2023/09/23 05:51:19;;;;;;;2.65;0.80;;;10.40;83.20;;;;;;5032234;28;20030;-79
2023/09/23 05:53:45;;;;;;;0.77;0.60;;;10.40;83.00;;;;;;5031971;28;20017;-79
2023/09/23 05:56:11;;;;;;;1.48;0.90;;;10.60;82.70;;;;;;5031689;28;20497;-79
2023/09/23 05:58:38;;;;;;;2.30;1.05;;;10.60;82.20;;;;;;5032443;28;20026;-79
2023/09/23 06:01:05;;;;;;;1.40;1.10;;;10.70;82.10;;;;;;5032331;28;20025;-78
2023/09/23 06:03:30;;;;;;;1.88;0.88;;;10.70;81.90;;;;;;5032895;28;20021;-78
2023/09/23 06:05:56;;;;;;;4.40;1.02;;;10.60;82.30;;;;;;5031776;28;20108;-77
2023/09/23 06:08:22;;;;;;;2.35;1.20;;;10.60;82.10;;;;;;5032000;28;20348;-77
2023/09/23 06:10:50;;;;;;;1.77;1.20;;;10.60;82.70;;;;;;5036566;28;20102;-78
2023/09/23 06:13:15;;;;;;;1.75;1.02;;;10.70;82.90;;;;;;5033445;28;20422;-77
2023/09/23 06:15:41;;;;;;;1.23;0.93;;;10.70;82.40;;;;;;5031721;28;20025;-76
2023/09/23 06:18:06;;;;;;;2.15;0.70;;;10.80;82.00;;;;;;5031372;28;20116;-77
2023/09/23 06:20:33;;;;;;;1.10;0.82;;;10.80;81.70;;;;;;5031694;28;20026;-78
2023/09/23 06:22:59;;;;;;;1.50;1.00;;;10.90;81.80;;;;;;5031296;28;20022;-76
2023/09/23 06:25:25;;;;;;;1.55;0.98;;;10.90;81.20;;;;;;5032537;28;20078;-76
2023/09/23 06:27:50;;;;;;;1.17;0.85;;;10.90;81.00;;;;;;5030924;28;20029;-76
2023/09/23 06:30:17;;;;;;;1.80;0.90;;;11.00;81.10;;;;;;5031393;28;20040;-76
2023/09/23 06:32:44;;;;;;;4.03;1.00;;;11.10;81.10;;;;;;5031720;28;20056;-78
2023/09/23 06:35:11;;;;;;;1.70;0.95;;;11.20;81.00;;;;;;5031447;28;20036;-77
2023/09/23 06:37:38;;;;;;;1.42;0.82;;;11.30;81.10;;;;;;5031769;28;20048;-78
2023/09/23 06:40:05;;;;;;;1.95;0.90;;;11.40;80.90;;;;;;5032496;28;20033;-78
2023/09/23 06:42:31;;;;;;;2.53;0.90;;;11.40;80.30;;;;;;5030705;28;20021;-79
2023/09/23 06:44:58;;;;;;;2.20;1.00;;;11.50;80.20;;;;;;5031878;28;20119;-77
2023/09/23 06:47:24;;;;;;;1.48;1.15;;;11.60;79.70;;;;;;5042790;28;20021;-78
2023/09/23 06:49:50;;;;;;;3.10;1.17;;;11.60;79.80;;;;;;5040948;28;20056;-77
2023/09/23 06:52:15;;;;;;;2.03;1.23;;;11.70;79.80;;;;;;5047599;28;20044;-77
2023/09/23 06:54:45;;;;;;;2.10;1.00;;;11.70;79.70;;;;;;5051093;28;20021;-78
2023/09/23 06:57:11;;;;;;;3.15;1.52;;;11.80;78.90;;;;;;5051237;28;20025;-78
2023/09/23 06:59:47;;;;;;;;;;;;;;;;;;;;;
2023/09/23 07:02:13;;;;;;;2.88;1.38;;;11.80;79.10;;;;;;5055936;28;20051;-78
2023/09/23 07:04:38;;;;;;;1.42;1.00;;;11.90;79.10;;;;;;5056367;28;20509;-77
2023/09/23 07:07:10;;;;;;;3.90;1.10;;;12.10;78.60;;;;;;5054892;28;20376;-76
2023/09/23 07:09:35;;;;;;;3.45;2.28;;;12.10;78.00;;;;;;5052814;28;20042;-77
2023/09/23 07:12:01;;;;;;;5.43;1.48;;;12.20;77.80;;;;;;5055216;28;20121;-75
2023/09/23 07:14:26;;;;;;;4.57;1.80;;;12.20;77.10;;;;;;5038402;28;20021;-78
2023/09/23 07:16:52;;;;;;;3.13;1.52;;;12.20;77.30;;;;;;5024566;28;20087;-77
2023/09/23 07:19:20;;;;;;;3.20;1.20;;;12.40;77.40;;;;;;5018184;28;20022;-78
2023/09/23 07:21:47;;;;;;;3.22;1.20;;;12.50;77.50;;;;;;5018808;28;20386;-78
2023/09/23 07:24:12;;;;;;;5.97;1.58;;;12.60;77.30;;;;;;5018461;28;20041;-78
2023/09/23 07:26:39;;;;;;;2.05;1.25;;;12.70;77.40;;;;;;5023815;28;20040;-77
2023/09/23 07:29:05;;;;;;;16.30;3.13;;;12.80;77.40;;;;;;5036480;28;20021;-73
2023/09/23 07:31:31;;;;;;;4.05;1.40;;;13.00;83.50;;;;;;5040057;28;20504;-73
2023/09/23 07:33:56;;;;;;;3.80;1.30;;;13.30;83.10;;;;;;5035055;28;20026;-73
2023/09/23 07:36:22;;;;;;;2.72;0.95;;;13.60;79.70;;;;;;5035588;28;20038;-74
2023/09/23 07:38:47;;;;;;;4.20;0.75;;;13.80;77.30;;;;;;5035046;28;20036;-74
2023/09/23 07:41:14;;;;;;;3.90;1.05;;;14.00;75.80;;;;;;5035178;28;20021;-74
2023/09/23 07:43:42;;;;;;;2.78;0.90;;;14.30;74.50;;;;;;5017284;28;20018;-73
2023/09/23 07:46:08;;;;;;;1.05;0.80;;;14.50;73.50;;;;;;5017474;28;20022;-74
2023/09/23 07:48:34;;;;;;;1.52;0.85;;;14.80;72.20;;;;;;5017007;28;20120;-74
2023/09/23 07:50:59;;;;;;;6.32;2.20;;;15.00;71.50;;;;;;5017146;28;20038;-74
2023/09/23 07:53:25;;;;;;;5.15;2.00;;;15.20;69.70;;;;;;5035112;28;20402;-75
2023/09/23 07:55:50;;;;;;;2.83;1.80;;;15.30;67.70;;;;;;5017192;28;20021;-73
2023/09/23 07:58:16;;;;;;;3.97;1.30;;;15.40;68.20;;;;;;5017341;28;20025;-73
2023/09/23 08:00:41;;;;;;;2.45;1.30;;;15.70;67.40;;;;;;5034913;28;20413;-74
2023/09/23 08:03:08;;;;;;;2.22;1.23;;;16.00;65.40;;;;;;5016954;28;20036;-74
2023/09/23 08:05:33;;;;;;;2.05;1.17;;;16.20;64.40;;;;;;5016938;28;20033;-75
2023/09/23 08:07:59;;;;;;;1.92;0.82;;;16.40;63.20;;;;;;5034598;28;20048;-74
2023/09/23 08:10:24;;;;;;;2.97;1.13;;;16.60;61.90;;;;;;5016684;28;20040;-74
2023/09/23 08:12:51;;;;;;;3.63;1.10;;;16.70;61.30;;;;;;5033849;28;20500;-74
2023/09/23 08:15:16;;;;;;;2.10;0.88;;;16.70;60.60;;;;;;5034541;28;20052;-75
2023/09/23 08:17:42;;;;;;;2.13;1.00;;;16.70;59.90;;;;;;5034467;28;20060;-74
2023/09/23 08:20:17;;;;;;;2.65;0.90;;;16.70;59.50;;;;;;5034226;28;20087;-74
2023/09/23 08:22:44;;;;;;;;;;;16.70;59.40;;;;;;5017294;28;20516;-73
2023/09/23 08:25:10;;;;;;;3.22;2.05;;;16.70;55.70;;;;;;5016816;28;19905;-74
2023/09/23 08:27:36;;;;;;;1.70;1.10;;;16.30;52.10;;;;;;5017170;28;20109;-73
2023/09/23 08:30:02;;;;;;;3.95;1.30;;;16.10;52.50;;;;;;5033898;28;20456;-74
2023/09/23 08:32:28;;;;;;;1.70;0.90;;;16.10;53.50;;;;;;5034349;28;20450;-75
2023/09/23 08:34:53;;;;;;;2.75;1.00;;;15.70;54.30;;;;;;5034192;28;20061;-75
2023/09/23 08:37:20;;;;;;;1.77;1.17;;;15.30;54.30;;;;;;5034007;28;20032;-73
2023/09/23 08:39:46;;;;;;;2.47;2.05;;;14.90;57.80;;;;;;5016564;28;20033;-80
2023/09/23 08:42:17;;;;;;;2.38;1.75;;;15.00;56.60;;;;;;5017202;28;20017;-79
2023/09/23 08:44:43;;;;;;;3.22;1.83;;;15.00;56.20;;;;;;5016796;28;20083;-79
2023/09/23 08:47:09;;;;;;;3.55;1.98;;;15.00;56.10;;;;;;5019882;28;20022;-80
2023/09/23 08:49:37;;;;;;;2.95;1.80;;;15.00;55.50;;;;;;5016676;28;20126;-79
2023/09/23 08:52:05;;;;;;;2.03;1.23;;;15.10;55.00;;;;;;5061920;22;20048;-80
2023/09/23 08:54:31;;;;;;;5.28;4.60;;;15.10;54.70;;;;;;5074789;28;20373;-79
2023/09/23 08:56:58;;;;;;;4.18;3.20;;;14.90;54.90;;;;;;5056325;28;20017;-80
2023/09/23 08:59:26;;;;;;;4.13;1.88;;;14.80;55.10;;;;;;5039467;28;20039;-79
2023/09/23 09:01:52;;;;;;;2.95;2.03;;;14.90;54.60;;;;;;5056044;28;20017;-79
2023/09/23 09:04:17;;;;;;;2.40;1.40;;;15.00;54.90;;;;;;5055911;28;20534;-79
2023/09/23 09:06:50;;;;;;;1.38;0.90;;;14.90;57.20;;;;;;5056199;28;20115;-78
2023/09/23 09:09:17;;;;;;;2.13;0.80;;;15.00;55.90;;;;;;5062307;28;20113;-78
2023/09/23 09:11:51;;;;;;;2.65;1.33;;;15.10;54.90;;;;;;5045797;28;20473;-79
2023/09/23 09:14:17;;;;;;;3.60;1.15;;;15.30;55.70;;;;;;5059668;28;20047;-78
2023/09/23 09:16:43;;;;;;;2.28;0.93;;;15.40;54.50;;;;;;5055706;28;20027;-79
2023/09/23 09:19:10;;;;;;;1.75;0.63;;;15.20;54.90;;;;;;5055891;28;20539;-79
2023/09/23 09:21:37;;;;;;;2.95;0.90;;;15.10;54.80;;;;;;5055540;28;20020;-79
2023/09/23 09:24:04;;;;;;;2.13;0.80;;;15.00;55.80;;;;;;5055298;28;20028;-78
2023/09/23 09:26:31;;;;;;;3.08;0.50;;;15.10;54.40;;;;;;5056351;28;20070;-79
2023/09/23 09:28:58;;;;;;;1.83;0.90;;;14.90;55.60;;;;;;5057573;28;20422;-79
2023/09/23 09:31:33;;;;;;;2.55;0.95;;;14.80;56.30;;;;;;5056126;28;20035;-79
2023/09/23 09:34:04;;;;;;;1.42;0.85;;;14.90;56.10;;;;;;5073993;28;20099;-78
2023/09/23 09:36:34;;;;;;;3.38;0.90;;;14.90;55.80;;;;;;5073924;28;20036;-79
2023/09/23 09:39:08;;;;;;;2.40;0.52;;;14.80;55.80;;;;;;5040014;28;20032;-79
2023/09/23 09:41:54;;;;;;;1.50;0.70;;;15.00;56.50;;;;;;5041315;28;20037;-80
2023/09/23 09:44:23;;;;;;;2.90;0.73;;;15.00;55.90;;;;;;5057765;28;20029;-80
2023/09/23 09:46:53;;;;;;;2.45;1.00;;;15.10;55.80;;;;;;5056094;28;20020;-79
2023/09/23 09:49:19;;;;;;;2.50;0.73;;;15.30;56.10;;;;;;5055306;28;20112;-79
2023/09/23 09:51:50;;;;;;;1.90;0.80;;;15.60;54.80;;;;;;5057621;28;20041;-78
2023/09/23 09:54:25;;;;;;;2.67;1.00;;;15.80;54.00;;;;;;5049999;28;20422;-79
2023/09/23 09:56:53;;;;;;;3.67;1.05;;;16.00;54.50;;;;;;5044829;28;20476;-78
2023/09/23 09:59:33;;;;;;;3.13;1.05;;;16.00;53.50;;;;;;5062184;28;20060;-78
2023/09/23 10:02:21;;;;;;;2.78;1.00;;;16.10;53.40;;;;;;5059942;28;20013;-77
2023/09/23 10:04:51;;;;;;;0.60;0.52;;;16.10;52.40;;;;;;5037361;28;20025;-79
2023/09/23 10:07:17;;;;;;;2.83;1.10;;;16.20;52.00;;;;;;5034859;28;20111;-79
2023/09/23 10:09:55;;;;;;;3.25;1.00;;;16.30;50.90;;;;;;5023716;28;20036;-79
2023/09/23 10:12:31;;;;;;;2.33;0.82;;;16.50;50.20;;;;;;5046808;28;20094;-79
2023/09/23 10:15:01;;;;;;;;;;;16.60;48.80;;;;;;5042987;28;20040;-79
2023/09/23 10:17:36;;;;;;;4.18;1.00;;;16.90;49.60;;;;;;5045590;28;19911;-80
2023/09/23 10:20:08;;;;;;;2.72;0.50;;;17.00;48.90;;;;;;5046040;28;20035;-79
2023/09/23 10:22:34;;;;;;;2.53;0.77;;;17.30;48.20;;;;;;5046396;28;20385;-78
2023/09/23 10:25:11;;;;;;;1.77;1.02;;;17.20;46.80;;;;;;5061659;28;20032;-78
2023/09/23 10:28:20;;;;;;;2.22;0.98;;;17.30;47.50;;;;;;5044216;28;20017;-80
2023/09/23 10:31:07;;;;;;;2.28;0.68;;;17.50;46.00;;;;;;5048463;28;20043;-79
2023/09/23 10:33:36;;;;;;;1.92;0.90;;;17.90;45.30;;;;;;5042637;28;20025;-79
2023/09/23 10:36:04;;;;;;;4.38;0.70;;;18.10;44.30;;;;;;5048650;28;20048;-80
2023/09/23 10:38:35;;;;;;;2.10;0.90;;;18.10;45.60;;;;;;5047628;28;20027;-79
2023/09/23 10:41:01;;;;;;;1.38;0.88;;;18.00;47.10;;;;;;5047322;28;20024;-79
2023/09/23 10:43:28;;;;;;;1.80;0.88;;;18.00;45.70;;;;;;5048633;28;20067;-78
2023/09/23 10:45:58;;;;;;;2.53;0.73;;;18.00;46.30;;;;;;5047272;28;20025;-79
2023/09/23 10:48:24;;;;;;;2.85;1.08;;;18.30;46.40;;;;;;5049309;28;20163;-79
2023/09/23 10:50:52;;;;;;;2.17;1.40;;;18.40;45.20;;;;;;5048199;28;20056;-79
2023/09/23 10:53:21;;;;;;;1.77;0.80;;;18.10;44.60;;;;;;5057573;28;20043;-79
2023/09/23 10:55:47;;;;;;;3.05;1.10;;;18.10;44.90;;;;;;5059682;22;20434;-77
2023/09/23 10:58:13;;;;;;;1.90;1.00;;;18.20;44.30;;;;;;5024688;28;20021;-79
2023/09/23 11:00:40;;;;;;;2.03;1.10;;;18.00;45.40;;;;;;5026720;28;20025;-78
2023/09/23 11:03:14;;;;;;;3.53;0.80;;;18.10;44.80;;;;;;5021043;28;20079;-78
2023/09/23 11:05:43;;;;;;;2.03;1.10;;;18.00;45.70;;;;;;5023804;28;20458;-79
2023/09/23 11:08:32;;;;;;;1.48;1.13;;;18.10;45.20;;;;;;5021672;28;20084;-77
2023/09/23 11:14:21;;;;;;;2.20;1.50;;;18.20;45.30;;;;;;5531709;22;20067;-78
2023/09/23 11:16:46;;;;;;;1.27;1.15;;;18.40;44.30;;;;;;5037702;28;20032;-79
2023/09/23 11:19:12;;;;;;;2.22;1.17;;;18.60;43.50;;;;;;5037798;28;20017;-80
2023/09/23 11:21:46;;;;;;;2.70;1.00;;;18.90;43.80;;;;;;5040789;28;20024;-79
2023/09/23 11:24:12;;;;;;;2.75;1.33;;;19.00;43.70;;;;;;5036148;28;20021;-79
2023/09/23 11:26:41;;;;;;;2.95;1.88;;;19.10;44.30;;;;;;5037554;28;20441;-79
2023/09/23 11:29:07;;;;;;;3.53;1.65;;;19.00;43.60;;;;;;5018354;28;20082;-78
2023/09/23 11:31:34;;;;;;;2.95;1.80;;;18.60;45.60;;;;;;5037920;28;20083;-79
2023/09/23 11:34:00;;;;;;;3.17;1.45;;;18.10;46.90;;;;;;5055375;28;20527;-80
2023/09/23 11:36:26;;;;;;;2.40;1.73;;;17.60;47.20;;;;;;5035766;28;20033;-78
2023/09/23 11:38:51;;;;;;;3.38;3.05;;;17.20;47.50;;;;;;5038299;28;20017;-80
2023/09/23 11:41:17;;;;;;;3.67;2.22;;;16.90;48.70;;;;;;5066734;23;20112;-79
2023/09/23 11:43:44;;;;;;;2.97;1.40;;;16.70;50.90;;;;;;5074399;28;20063;-78
2023/09/23 11:46:11;;;;;;;2.75;1.20;;;16.60;50.80;;;;;;5074762;28;20032;-78
2023/09/23 11:48:37;;;;;;;3.58;1.40;;;16.40;51.20;;;;;;5075199;28;20008;-78
2023/09/23 11:51:02;;;;;;;2.65;1.23;;;16.50;49.90;;;;;;5074995;28;20033;-78
2023/09/23 11:53:30;;;;;;;4.53;1.30;;;16.40;50.30;;;;;;5093035;22;20049;-79
2023/09/23 11:55:56;;;;;;;1.77;1.10;;;16.40;50.30;;;;;;5046249;22;20072;-79
2023/09/23 11:58:23;;;;;;;3.70;1.20;;;16.40;51.30;;;;;;5060993;22;20128;-78
2023/09/23 12:00:49;;;;;;;3.55;1.40;;;16.30;50.80;;;;;;5053714;28;20025;-79
2023/09/23 12:03:14;;;;;;;2.10;1.05;;;16.30;51.70;;;;;;5053836;28;20074;-79
2023/09/23 12:05:41;;;;;;;2.58;1.35;;;16.20;51.20;;;;;;5053409;28;20016;-80
2023/09/23 12:08:09;;;;;;;1.92;1.30;;;16.20;50.80;;;;;;5053675;28;20124;-80
2023/09/23 12:10:36;;;;;;;2.88;1.20;;;16.30;51.30;;;;;;5053712;28;20033;-81
2023/09/23 12:13:06;;;;;;;3.00;1.35;;;16.60;50.50;;;;;;5053782;28;20048;-77
2023/09/23 12:15:33;;;;;;;3.35;1.17;;;16.90;51.00;;;;;;5053338;28;20025;-77
2023/09/23 12:18:01;;;;;;;2.30;1.23;;;17.10;49.90;;;;;;5054510;28;20134;-77
2023/09/23 12:20:28;;;;;;;3.38;1.35;;;17.50;47.90;;;;;;5053119;28;20135;-78
2023/09/23 12:22:56;;;;;;;1.80;1.10;;;17.40;45.80;;;;;;5053347;28;20027;-79
2023/09/23 12:25:21;;;;;;;4.15;1.10;;;17.60;45.90;;;;;;5053172;28;20024;-78
2023/09/23 12:27:48;;;;;;;5.25;4.63;;;17.50;47.20;;;;;;5037112;28;20025;-82
2023/09/23 12:30:17;;;;;;;7.25;5.97;;;17.60;46.30;;;;;;5052949;28;20124;-82
2023/09/23 12:32:45;;;;;;;5.65;3.85;;;17.80;45.40;;;;;;5053941;28;20025;-80
2023/09/23 12:35:12;;;;;;;1.95;1.17;;;18.00;45.50;;;;;;5054251;28;20036;-81
2023/09/23 12:37:38;;;;;;;2.38;1.10;;;18.00;45.50;;;;;;5054522;28;20025;-81
2023/09/23 12:40:07;;;;;;;1.88;0.80;;;17.80;43.80;;;;;;5055269;28;20094;-82
2023/09/23 12:42:34;;;;;;;1.02;0.80;;;17.70;42.20;;;;;;5054442;28;20052;-82
2023/09/23 12:45:00;;;;;;;1.00;0.68;;;17.60;42.60;;;;;;5052550;28;20040;-81
2023/09/23 12:47:28;;;;;;;1.65;0.80;;;17.60;41.10;;;;;;5054754;28;20021;-81
2023/09/23 12:49:54;;;;;;;1.35;0.80;;;17.70;41.90;;;;;;5053316;28;20337;-80
2023/09/23 12:52:19;;;;;;;1.90;1.10;;;17.90;41.50;;;;;;5053491;28;20029;-81
2023/09/23 12:54:48;;;;;;;1.55;0.85;;;17.70;42.30;;;;;;5053371;28;20059;-80